ADDS METAR Data INFO
IDs: Format: Raw Decoded Include TAF

Data at: 2035 UTC 20 Jul 2018

METAR for:KPEZ (Pleasanton Muni, TX, US)
Text:KPEZ 202015Z AUTO 17007KT 10SM CLR 39/12 A2991 RMK AO2 T03870124
Temperature: 38.7°C (102°F)
Dewpoint: 12.4°C ( 54°F) [RH = 21%]
Pressure (altimeter):29.91 inches Hg (1013.0 mb)
Winds:from the S (170 degrees) at 8 MPH (7 knots; 3.6 m/s)
Visibility:10 or more sm (16+ km)
Ceiling:at least 12,000 feet AGL
Clouds:sky clear below 12,000 feet AGL
QC Flag:automated observation with no human augmentation